sensor_id;sensor_type;location;lat;lon;timestamp;temperature;humidity
9329;DHT22;4703;48.748;19.142;2022-08-19T00:02:02;22.90;93.50
9329;DHT22;4703;48.748;19.142;2022-08-19T00:04:33;22.90;93.70
9329;DHT22;4703;48.748;19.142;2022-08-19T00:07:05;22.90;93.50
9329;DHT22;4703;48.748;19.142;2022-08-19T00:09:33;22.90;94.20
9329;DHT22;4703;48.748;19.142;2022-08-19T00:12:00;22.90;94.10
9329;DHT22;4703;48.748;19.142;2022-08-19T00:14:28;22.80;94.50
9329;DHT22;4703;48.748;19.142;2022-08-19T00:16:58;22.80;94.20
9329;DHT22;4703;48.748;19.142;2022-08-19T00:19:25;22.80;93.80
9329;DHT22;4703;48.748;19.142;2022-08-19T00:21:52;22.80;93.90
9329;DHT22;4703;48.748;19.142;2022-08-19T00:24:19;22.80;93.80
9329;DHT22;4703;48.748;19.142;2022-08-19T00:26:47;22.80;93.80
9329;DHT22;4703;48.748;19.142;2022-08-19T00:29:16;22.70;93.80
9329;DHT22;4703;48.748;19.142;2022-08-19T00:31:46;22.70;94.90
9329;DHT22;4703;48.748;19.142;2022-08-19T00:34:16;22.70;95.40
9329;DHT22;4703;48.748;19.142;2022-08-19T00:36:43;22.70;94.70
9329;DHT22;4703;48.748;19.142;2022-08-19T00:39:11;22.70;94.90
9329;DHT22;4703;48.748;19.142;2022-08-19T00:41:39;22.60;94.20
9329;DHT22;4703;48.748;19.142;2022-08-19T00:44:16;22.60;94.90
9329;DHT22;4703;48.748;19.142;2022-08-19T00:46:45;22.60;95.20
9329;DHT22;4703;48.748;19.142;2022-08-19T00:49:49;22.60;95.10
9329;DHT22;4703;48.748;19.142;2022-08-19T00:52:23;22.50;94.70
9329;DHT22;4703;48.748;19.142;2022-08-19T00:54:57;22.50;95.50
9329;DHT22;4703;48.748;19.142;2022-08-19T00:57:35;22.50;95.30
9329;DHT22;4703;48.748;19.142;2022-08-19T01:00:11;22.50;95.30
9329;DHT22;4703;48.748;19.142;2022-08-19T01:02:41;22.50;95.40
9329;DHT22;4703;48.748;19.142;2022-08-19T01:05:17;22.50;95.10
9329;DHT22;4703;48.748;19.142;2022-08-19T01:07:48;22.40;95.30
9329;DHT22;4703;48.748;19.142;2022-08-19T01:10:22;22.40;95.00
9329;DHT22;4703;48.748;19.142;2022-08-19T01:12:51;22.40;95.10
9329;DHT22;4703;48.748;19.142;2022-08-19T01:15:23;22.30;95.40
9329;DHT22;4703;48.748;19.142;2022-08-19T01:17:54;22.30;95.30
9329;DHT22;4703;48.748;19.142;2022-08-19T01:20:23;22.30;95.30
9329;DHT22;4703;48.748;19.142;2022-08-19T01:22:56;22.30;95.30
9329;DHT22;4703;48.748;19.142;2022-08-19T01:25:29;22.30;95.00
9329;DHT22;4703;48.748;19.142;2022-08-19T01:27:59;22.30;95.10
9329;DHT22;4703;48.748;19.142;2022-08-19T01:30:36;22.20;95.20
9329;DHT22;4703;48.748;19.142;2022-08-19T01:33:04;22.10;95.70
9329;DHT22;4703;48.748;19.142;2022-08-19T01:35:32;22.10;95.40
9329;DHT22;4703;48.748;19.142;2022-08-19T01:38:06;22.10;96.00
9329;DHT22;4703;48.748;19.142;2022-08-19T01:40:39;22.10;95.90
9329;DHT22;4703;48.748;19.142;2022-08-19T01:43:06;22.00;96.20
9329;DHT22;4703;48.748;19.142;2022-08-19T01:45:35;22.00;96.60
9329;DHT22;4703;48.748;19.142;2022-08-19T01:48:03;22.00;96.70
9329;DHT22;4703;48.748;19.142;2022-08-19T01:50:32;22.00;96.80
9329;DHT22;4703;48.748;19.142;2022-08-19T01:53:01;22.00;95.90
9329;DHT22;4703;48.748;19.142;2022-08-19T01:55:35;22.00;95.90
9329;DHT22;4703;48.748;19.142;2022-08-19T01:58:27;22.00;96.10
9329;DHT22;4703;48.748;19.142;2022-08-19T02:00:57;21.90;96.00
9329;DHT22;4703;48.748;19.142;2022-08-19T02:03:25;21.90;96.10
9329;DHT22;4703;48.748;19.142;2022-08-19T02:05:57;21.90;96.10
9329;DHT22;4703;48.748;19.142;2022-08-19T02:08:30;21.80;96.70
9329;DHT22;4703;48.748;19.142;2022-08-19T02:10:58;21.80;97.20
9329;DHT22;4703;48.748;19.142;2022-08-19T02:13:26;21.90;96.60
9329;DHT22;4703;48.748;19.142;2022-08-19T02:15:53;21.80;96.90
9329;DHT22;4703;48.748;19.142;2022-08-19T02:18:20;21.80;97.20
9329;DHT22;4703;48.748;19.142;2022-08-19T02:20:53;21.70;97.40
9329;DHT22;4703;48.748;19.142;2022-08-19T02:23:20;21.70;96.90
9329;DHT22;4703;48.748;19.142;2022-08-19T02:25:48;21.70;97.20
9329;DHT22;4703;48.748;19.142;2022-08-19T02:28:15;21.70;96.90
9329;DHT22;4703;48.748;19.142;2022-08-19T02:30:45;21.70;96.70
9329;DHT22;4703;48.748;19.142;2022-08-19T02:33:13;21.70;97.10
9329;DHT22;4703;48.748;19.142;2022-08-19T02:35:42;21.60;97.20
9329;DHT22;4703;48.748;19.142;2022-08-19T02:38:10;21.60;97.10
9329;DHT22;4703;48.748;19.142;2022-08-19T02:41:01;21.60;97.10
9329;DHT22;4703;48.748;19.142;2022-08-19T02:43:31;21.60;97.00
9329;DHT22;4703;48.748;19.142;2022-08-19T02:46:00;21.60;97.50
9329;DHT22;4703;48.748;19.142;2022-08-19T02:48:28;21.50;97.10
9329;DHT22;4703;48.748;19.142;2022-08-19T02:50:55;21.50;97.30
9329;DHT22;4703;48.748;19.142;2022-08-19T02:53:24;21.50;97.80
9329;DHT22;4703;48.748;19.142;2022-08-19T02:55:53;21.60;97.80
9329;DHT22;4703;48.748;19.142;2022-08-19T02:58:21;21.50;97.80
9329;DHT22;4703;48.748;19.142;2022-08-19T03:00:53;21.50;97.70
9329;DHT22;4703;48.748;19.142;2022-08-19T03:03:21;21.50;97.50
9329;DHT22;4703;48.748;19.142;2022-08-19T03:05:48;21.50;97.70
9329;DHT22;4703;48.748;19.142;2022-08-19T03:08:23;21.40;98.40
9329;DHT22;4703;48.748;19.142;2022-08-19T03:10:51;21.40;98.30
9329;DHT22;4703;48.748;19.142;2022-08-19T03:13:19;21.50;98.50
9329;DHT22;4703;48.748;19.142;2022-08-19T03:15:47;21.30;98.40
9329;DHT22;4703;48.748;19.142;2022-08-19T03:18:15;21.30;98.40
9329;DHT22;4703;48.748;19.142;2022-08-19T03:20:54;21.30;98.80
9329;DHT22;4703;48.748;19.142;2022-08-19T03:23:21;21.30;98.80
9329;DHT22;4703;48.748;19.142;2022-08-19T03:25:50;21.30;98.30
9329;DHT22;4703;48.748;19.142;2022-08-19T03:28:38;21.30;98.90
9329;DHT22;4703;48.748;19.142;2022-08-19T03:31:12;21.20;98.20
9329;DHT22;4703;48.748;19.142;2022-08-19T03:34:00;21.30;98.40
9329;DHT22;4703;48.748;19.142;2022-08-19T03:36:29;21.20;98.10
9329;DHT22;4703;48.748;19.142;2022-08-19T03:38:59;21.20;98.90
9329;DHT22;4703;48.748;19.142;2022-08-19T03:41:32;21.20;98.60
9329;DHT22;4703;48.748;19.142;2022-08-19T03:44:17;21.20;99.20
9329;DHT22;4703;48.748;19.142;2022-08-19T03:46:49;21.20;98.60
9329;DHT22;4703;48.748;19.142;2022-08-19T03:49:19;21.10;98.80
9329;DHT22;4703;48.748;19.142;2022-08-19T03:51:53;21.10;98.70
9329;DHT22;4703;48.748;19.142;2022-08-19T03:54:23;21.20;98.90
9329;DHT22;4703;48.748;19.142;2022-08-19T03:56:52;21.10;99.80
9329;DHT22;4703;48.748;19.142;2022-08-19T03:59:26;21.10;99.00
9329;DHT22;4703;48.748;19.142;2022-08-19T04:01:57;21.10;99.40
9329;DHT22;4703;48.748;19.142;2022-08-19T04:04:25;21.10;98.90
9329;DHT22;4703;48.748;19.142;2022-08-19T04:06:55;21.10;99.40
9329;DHT22;4703;48.748;19.142;2022-08-19T04:09:22;21.00;99.60
9329;DHT22;4703;48.748;19.142;2022-08-19T04:11:52;21.00;99.20
9329;DHT22;4703;48.748;19.142;2022-08-19T04:14:26;21.00;99.60
9329;DHT22;4703;48.748;19.142;2022-08-19T04:16:57;21.00;99.30
9329;DHT22;4703;48.748;19.142;2022-08-19T04:19:26;21.00;99.60
9329;DHT22;4703;48.748;19.142;2022-08-19T04:21:55;21.00;99.50
9329;DHT22;4703;48.748;19.142;2022-08-19T04:24:23;21.00;99.60
9329;DHT22;4703;48.748;19.142;2022-08-19T04:26:50;21.00;99.60
9329;DHT22;4703;48.748;19.142;2022-08-19T04:29:22;21.00;99.90
9329;DHT22;4703;48.748;19.142;2022-08-19T04:31:53;21.00;99.90
9329;DHT22;4703;48.748;19.142;2022-08-19T04:34:24;21.00;99.90
9329;DHT22;4703;48.748;19.142;2022-08-19T04:36:53;21.00;99.90
9329;DHT22;4703;48.748;19.142;2022-08-19T04:39:30;21.00;99.90
9329;DHT22;4703;48.748;19.142;2022-08-19T04:42:17;21.00;99.90
9329;DHT22;4703;48.748;19.142;2022-08-19T04:45:05;21.10;99.90
9329;DHT22;4703;48.748;19.142;2022-08-19T04:47:36;21.10;99.90
9329;DHT22;4703;48.748;19.142;2022-08-19T04:50:24;22.40;99.90
9329;DHT22;4703;48.748;19.142;2022-08-19T04:52:52;21.10;99.70
9329;DHT22;4703;48.748;19.142;2022-08-19T04:55:20;21.20;99.90
9329;DHT22;4703;48.748;19.142;2022-08-19T04:57:46;21.20;99.90
9329;DHT22;4703;48.748;19.142;2022-08-19T05:00:14;21.20;99.90
9329;DHT22;4703;48.748;19.142;2022-08-19T05:02:41;21.20;99.90
9329;DHT22;4703;48.748;19.142;2022-08-19T05:05:09;21.10;99.90
9329;DHT22;4703;48.748;19.142;2022-08-19T05:07:36;21.10;99.90
9329;DHT22;4703;48.748;19.142;2022-08-19T05:10:05;21.10;99.90
9329;DHT22;4703;48.748;19.142;2022-08-19T05:12:33;21.10;99.90
9329;DHT22;4703;48.748;19.142;2022-08-19T05:15:04;21.10;99.90
9329;DHT22;4703;48.748;19.142;2022-08-19T05:17:35;21.10;99.90
9329;DHT22;4703;48.748;19.142;2022-08-19T05:20:07;21.10;99.90
9329;DHT22;4703;48.748;19.142;2022-08-19T05:22:53;21.10;99.90
9329;DHT22;4703;48.748;19.142;2022-08-19T05:25:21;21.20;99.90
9329;DHT22;4703;48.748;19.142;2022-08-19T05:27:48;21.20;99.90
9329;DHT22;4703;48.748;19.142;2022-08-19T05:30:16;21.20;99.90
9329;DHT22;4703;48.748;19.142;2022-08-19T05:32:44;21.30;99.90
9329;DHT22;4703;48.748;19.142;2022-08-19T05:35:11;21.30;99.90
9329;DHT22;4703;48.748;19.142;2022-08-19T05:37:39;21.30;99.90
9329;DHT22;4703;48.748;19.142;2022-08-19T05:40:09;21.40;99.90
9329;DHT22;4703;48.748;19.142;2022-08-19T05:42:37;21.40;99.90
9329;DHT22;4703;48.748;19.142;2022-08-19T05:45:04;21.50;99.90
9329;DHT22;4703;48.748;19.142;2022-08-19T05:47:32;21.60;99.90
9329;DHT22;4703;48.748;19.142;2022-08-19T05:49:59;21.60;99.90
9329;DHT22;4703;48.748;19.142;2022-08-19T05:52:30;21.70;99.90
9329;DHT22;4703;48.748;19.142;2022-08-19T05:54:59;21.80;99.90
9329;DHT22;4703;48.748;19.142;2022-08-19T05:57:26;21.80;99.90
9329;DHT22;4703;48.748;19.142;2022-08-19T05:59:55;21.90;99.90
9329;DHT22;4703;48.748;19.142;2022-08-19T06:02:26;22.00;99.90
9329;DHT22;4703;48.748;19.142;2022-08-19T06:04:53;22.00;99.90
9329;DHT22;4703;48.748;19.142;2022-08-19T06:07:20;22.10;99.90
9329;DHT22;4703;48.748;19.142;2022-08-19T06:09:47;22.20;99.90
9329;DHT22;4703;48.748;19.142;2022-08-19T06:12:30;22.20;99.90
9329;DHT22;4703;48.748;19.142;2022-08-19T06:15:05;22.30;99.90
9329;DHT22;4703;48.748;19.142;2022-08-19T06:17:37;22.30;99.90
9329;DHT22;4703;48.748;19.142;2022-08-19T06:20:10;22.30;99.90
9329;DHT22;4703;48.748;19.142;2022-08-19T06:22:42;22.40;99.90
9329;DHT22;4703;48.748;19.142;2022-08-19T06:25:13;22.40;99.90
9329;DHT22;4703;48.748;19.142;2022-08-19T06:27:41;22.50;99.90
9329;DHT22;4703;48.748;19.142;2022-08-19T06:30:28;22.50;99.90
9329;DHT22;4703;48.748;19.142;2022-08-19T06:32:55;22.60;99.90
9329;DHT22;4703;48.748;19.142;2022-08-19T06:35:22;22.60;99.90
9329;DHT22;4703;48.748;19.142;2022-08-19T06:37:49;22.70;99.90
9329;DHT22;4703;48.748;19.142;2022-08-19T06:40:16;22.70;99.90
9329;DHT22;4703;48.748;19.142;2022-08-19T06:42:43;22.70;99.90
9329;DHT22;4703;48.748;19.142;2022-08-19T06:45:22;22.80;99.90
9329;DHT22;4703;48.748;19.142;2022-08-19T06:47:51;22.80;99.90
9329;DHT22;4703;48.748;19.142;2022-08-19T06:50:23;22.90;99.90
9329;DHT22;4703;48.748;19.142;2022-08-19T06:52:51;23.00;99.90
9329;DHT22;4703;48.748;19.142;2022-08-19T06:55:18;23.00;99.90
9329;DHT22;4703;48.748;19.142;2022-08-19T06:57:46;23.00;99.90
9329;DHT22;4703;48.748;19.142;2022-08-19T07:00:15;23.10;99.90
9329;DHT22;4703;48.748;19.142;2022-08-19T07:02:43;23.20;99.90
9329;DHT22;4703;48.748;19.142;2022-08-19T07:05:21;23.20;99.90
9329;DHT22;4703;48.748;19.142;2022-08-19T07:07:48;23.30;99.90
9329;DHT22;4703;48.748;19.142;2022-08-19T07:10:16;23.30;99.90
9329;DHT22;4703;48.748;19.142;2022-08-19T07:12:44;23.40;99.90
9329;DHT22;4703;48.748;19.142;2022-08-19T07:15:12;23.40;99.90
9329;DHT22;4703;48.748;19.142;2022-08-19T07:17:39;23.50;99.90
9329;DHT22;4703;48.748;19.142;2022-08-19T07:20:08;23.50;99.90
9329;DHT22;4703;48.748;19.142;2022-08-19T07:22:37;23.60;99.90
9329;DHT22;4703;48.748;19.142;2022-08-19T07:25:06;23.60;99.90
9329;DHT22;4703;48.748;19.142;2022-08-19T07:27:34;23.70;99.90
9329;DHT22;4703;48.748;19.142;2022-08-19T07:30:02;23.70;99.90
9329;DHT22;4703;48.748;19.142;2022-08-19T07:32:31;23.80;99.90
9329;DHT22;4703;48.748;19.142;2022-08-19T07:34:58;23.80;99.90
9329;DHT22;4703;48.748;19.142;2022-08-19T07:37:27;23.80;99.90
9329;DHT22;4703;48.748;19.142;2022-08-19T07:40:00;23.90;99.90
9329;DHT22;4703;48.748;19.142;2022-08-19T07:42:28;24.00;99.90
9329;DHT22;4703;48.748;19.142;2022-08-19T07:44:57;24.00;99.80
9329;DHT22;4703;48.748;19.142;2022-08-19T07:47:25;24.10;99.90
9329;DHT22;4703;48.748;19.142;2022-08-19T07:50:14;24.10;99.80
9329;DHT22;4703;48.748;19.142;2022-08-19T07:52:41;24.20;99.80
9329;DHT22;4703;48.748;19.142;2022-08-19T07:55:20;24.30;99.60
9329;DHT22;4703;48.748;19.142;2022-08-19T07:58:09;24.40;99.60
9329;DHT22;4703;48.748;19.142;2022-08-19T08:00:42;24.50;99.60
9329;DHT22;4703;48.748;19.142;2022-08-19T08:03:10;24.50;99.30
9329;DHT22;4703;48.748;19.142;2022-08-19T08:05:37;24.60;99.20
9329;DHT22;4703;48.748;19.142;2022-08-19T08:08:23;24.70;98.90
9329;DHT22;4703;48.748;19.142;2022-08-19T08:11:19;24.80;99.30
9329;DHT22;4703;48.748;19.142;2022-08-19T08:13:47;24.90;99.50
9329;DHT22;4703;48.748;19.142;2022-08-19T08:16:37;24.90;99.40
9329;DHT22;4703;48.748;19.142;2022-08-19T08:19:13;25.00;99.00
9329;DHT22;4703;48.748;19.142;2022-08-19T08:21:52;25.10;98.80
9329;DHT22;4703;48.748;19.142;2022-08-19T08:24:22;25.10;99.10
9329;DHT22;4703;48.748;19.142;2022-08-19T08:26:55;25.20;98.10
9329;DHT22;4703;48.748;19.142;2022-08-19T08:29:24;25.30;98.20
9329;DHT22;4703;48.748;19.142;2022-08-19T08:32:00;25.30;98.40
9329;DHT22;4703;48.748;19.142;2022-08-19T08:34:27;25.40;97.50
9329;DHT22;4703;48.748;19.142;2022-08-19T08:36:54;25.50;97.40
9329;DHT22;4703;48.748;19.142;2022-08-19T08:39:21;25.50;96.10
9329;DHT22;4703;48.748;19.142;2022-08-19T08:44:59;25.70;94.90
9329;DHT22;4703;48.748;19.142;2022-08-19T08:47:37;25.80;95.50
9329;DHT22;4703;48.748;19.142;2022-08-19T08:50:24;25.80;95.10
9329;DHT22;4703;48.748;19.142;2022-08-19T08:52:56;25.90;95.40
9329;DHT22;4703;48.748;19.142;2022-08-19T08:55:27;26.00;95.50
9329;DHT22;4703;48.748;19.142;2022-08-19T08:58:20;26.10;94.90
9329;DHT22;4703;48.748;19.142;2022-08-19T09:00:53;26.20;94.40
9329;DHT22;4703;48.748;19.142;2022-08-19T09:03:27;26.30;94.60
9329;DHT22;4703;48.748;19.142;2022-08-19T09:06:03;26.30;93.60
9329;DHT22;4703;48.748;19.142;2022-08-19T09:09:04;26.40;94.00
9329;DHT22;4703;48.748;19.142;2022-08-19T09:14:51;26.50;94.40
9329;DHT22;4703;48.748;19.142;2022-08-19T09:17:24;26.60;94.00
9329;DHT22;4703;48.748;19.142;2022-08-19T09:20:23;26.60;93.80
9329;DHT22;4703;48.748;19.142;2022-08-19T09:22:51;26.70;93.90
9329;DHT22;4703;48.748;19.142;2022-08-19T09:25:20;26.70;93.20
9329;DHT22;4703;48.748;19.142;2022-08-19T09:27:55;26.90;92.80
9329;DHT22;4703;48.748;19.142;2022-08-19T09:30:31;26.90;92.20
9329;DHT22;4703;48.748;19.142;2022-08-19T09:33:00;27.00;92.00
9329;DHT22;4703;48.748;19.142;2022-08-19T09:35:29;27.00;92.70
9329;DHT22;4703;48.748;19.142;2022-08-19T09:37:58;27.10;92.30
9329;DHT22;4703;48.748;19.142;2022-08-19T09:40:27;27.20;91.50
9329;DHT22;4703;48.748;19.142;2022-08-19T09:42:57;27.30;91.80
9329;DHT22;4703;48.748;19.142;2022-08-19T09:45:26;27.30;91.40
9329;DHT22;4703;48.748;19.142;2022-08-19T09:47:53;27.40;91.40
9329;DHT22;4703;48.748;19.142;2022-08-19T09:50:22;27.40;91.50
9329;DHT22;4703;48.748;19.142;2022-08-19T09:52:50;27.50;91.10
9329;DHT22;4703;48.748;19.142;2022-08-19T09:55:24;27.50;90.90
9329;DHT22;4703;48.748;19.142;2022-08-19T09:58:00;27.50;90.30
9329;DHT22;4703;48.748;19.142;2022-08-19T10:00:28;27.60;90.90
9329;DHT22;4703;48.748;19.142;2022-08-19T10:02:55;27.60;91.40
9329;DHT22;4703;48.748;19.142;2022-08-19T10:05:23;27.80;91.00
9329;DHT22;4703;48.748;19.142;2022-08-19T10:08:09;27.90;89.90
9329;DHT22;4703;48.748;19.142;2022-08-19T10:10:41;28.10;90.30
9329;DHT22;4703;48.748;19.142;2022-08-19T10:13:14;28.40;90.00
9329;DHT22;4703;48.748;19.142;2022-08-19T10:15:43;28.50;88.80
9329;DHT22;4703;48.748;19.142;2022-08-19T10:18:14;28.70;90.00
9329;DHT22;4703;48.748;19.142;2022-08-19T10:20:44;28.80;90.30
9329;DHT22;4703;48.748;19.142;2022-08-19T10:23:19;29.00;87.60
9329;DHT22;4703;48.748;19.142;2022-08-19T10:25:47;29.20;86.60
9329;DHT22;4703;48.748;19.142;2022-08-19T10:28:15;29.40;86.00
9329;DHT22;4703;48.748;19.142;2022-08-19T10:30:45;29.60;83.50
9329;DHT22;4703;48.748;19.142;2022-08-19T10:33:14;29.70;83.30
9329;DHT22;4703;48.748;19.142;2022-08-19T10:36:14;29.80;82.80
9329;DHT22;4703;48.748;19.142;2022-08-19T10:38:46;30.00;80.00
9329;DHT22;4703;48.748;19.142;2022-08-19T10:41:25;30.00;79.10
9329;DHT22;4703;48.748;19.142;2022-08-19T10:43:56;30.30;78.60
9329;DHT22;4703;48.748;19.142;2022-08-19T10:46:30;30.40;76.10
9329;DHT22;4703;48.748;19.142;2022-08-19T10:49:00;30.70;74.00
9329;DHT22;4703;48.748;19.142;2022-08-19T10:51:28;30.90;74.90
9329;DHT22;4703;48.748;19.142;2022-08-19T10:54:15;31.10;73.70
9329;DHT22;4703;48.748;19.142;2022-08-19T10:56:42;31.30;74.10
9329;DHT22;4703;48.748;19.142;2022-08-19T10:59:28;31.40;71.30
9329;DHT22;4703;48.748;19.142;2022-08-19T11:02:04;31.60;71.20
9329;DHT22;4703;48.748;19.142;2022-08-19T11:04:32;31.70;68.40
9329;DHT22;4703;48.748;19.142;2022-08-19T11:07:01;31.80;69.80
9329;DHT22;4703;48.748;19.142;2022-08-19T11:09:30;31.80;68.50
9329;DHT22;4703;48.748;19.142;2022-08-19T11:12:00;31.80;68.70
9329;DHT22;4703;48.748;19.142;2022-08-19T11:14:30;31.80;66.80
9329;DHT22;4703;48.748;19.142;2022-08-19T11:17:00;31.80;68.10
9329;DHT22;4703;48.748;19.142;2022-08-19T11:19:29;31.90;67.30
9329;DHT22;4703;48.748;19.142;2022-08-19T11:21:57;32.00;70.00
9329;DHT22;4703;48.748;19.142;2022-08-19T11:24:30;32.20;69.30
9329;DHT22;4703;48.748;19.142;2022-08-19T11:27:04;32.40;69.90
9329;DHT22;4703;48.748;19.142;2022-08-19T11:29:37;32.60;69.50
9329;DHT22;4703;48.748;19.142;2022-08-19T11:32:08;32.70;66.30
9329;DHT22;4703;48.748;19.142;2022-08-19T11:34:36;33.00;63.80
9329;DHT22;4703;48.748;19.142;2022-08-19T11:37:04;33.10;64.40
9329;DHT22;4703;48.748;19.142;2022-08-19T11:39:33;33.30;67.30
9329;DHT22;4703;48.748;19.142;2022-08-19T11:42:03;33.40;65.50
9329;DHT22;4703;48.748;19.142;2022-08-19T11:44:52;33.60;65.70
9329;DHT22;4703;48.748;19.142;2022-08-19T11:47:19;33.70;61.60
9329;DHT22;4703;48.748;19.142;2022-08-19T11:49:47;33.90;59.30
9329;DHT22;4703;48.748;19.142;2022-08-19T11:52:14;33.80;58.20
9329;DHT22;4703;48.748;19.142;2022-08-19T11:54:41;33.80;60.50
9329;DHT22;4703;48.748;19.142;2022-08-19T11:57:08;33.90;59.00
9329;DHT22;4703;48.748;19.142;2022-08-19T11:59:35;34.00;61.90
9329;DHT22;4703;48.748;19.142;2022-08-19T12:02:02;34.20;58.70
9329;DHT22;4703;48.748;19.142;2022-08-19T12:04:30;34.40;58.70
9329;DHT22;4703;48.748;19.142;2022-08-19T12:06:57;34.60;60.00
9329;DHT22;4703;48.748;19.142;2022-08-19T12:09:24;34.70;59.90
9329;DHT22;4703;48.748;19.142;2022-08-19T12:11:51;34.90;59.90
9329;DHT22;4703;48.748;19.142;2022-08-19T12:14:18;35.10;59.30
9329;DHT22;4703;48.748;19.142;2022-08-19T12:16:45;35.30;58.40
9329;DHT22;4703;48.748;19.142;2022-08-19T12:19:18;35.60;57.50
9329;DHT22;4703;48.748;19.142;2022-08-19T12:21:48;35.80;56.50
9329;DHT22;4703;48.748;19.142;2022-08-19T12:24:16;36.00;55.40
9329;DHT22;4703;48.748;19.142;2022-08-19T12:26:51;36.10;54.70
9329;DHT22;4703;48.748;19.142;2022-08-19T12:29:20;36.20;53.80
9329;DHT22;4703;48.748;19.142;2022-08-19T12:31:50;36.30;53.30
9329;DHT22;4703;48.748;19.142;2022-08-19T12:34:17;36.30;52.60
9329;DHT22;4703;48.748;19.142;2022-08-19T12:36:46;36.30;51.40
9329;DHT22;4703;48.748;19.142;2022-08-19T12:39:16;36.20;51.20
9329;DHT22;4703;48.748;19.142;2022-08-19T12:41:43;36.20;51.80
9329;DHT22;4703;48.748;19.142;2022-08-19T12:44:21;36.20;51.00
9329;DHT22;4703;48.748;19.142;2022-08-19T12:46:58;36.10;50.50
9329;DHT22;4703;48.748;19.142;2022-08-19T12:49:28;35.90;50.60
9329;DHT22;4703;48.748;19.142;2022-08-19T12:52:16;35.60;49.00
9329;DHT22;4703;48.748;19.142;2022-08-19T12:54:49;35.40;50.60
9329;DHT22;4703;48.748;19.142;2022-08-19T12:57:21;35.10;52.00
9329;DHT22;4703;48.748;19.142;2022-08-19T13:02:31;34.80;52.00
9329;DHT22;4703;48.748;19.142;2022-08-19T13:05:05;34.60;51.90
9329;DHT22;4703;48.748;19.142;2022-08-19T13:07:35;34.50;51.70
9329;DHT22;4703;48.748;19.142;2022-08-19T13:10:05;34.50;53.30
9329;DHT22;4703;48.748;19.142;2022-08-19T13:12:33;34.40;54.20
9329;DHT22;4703;48.748;19.142;2022-08-19T13:15:01;34.30;53.10
9329;DHT22;4703;48.748;19.142;2022-08-19T13:17:36;34.20;52.00
9329;DHT22;4703;48.748;19.142;2022-08-19T13:20:06;34.20;52.80
9329;DHT22;4703;48.748;19.142;2022-08-19T13:22:35;34.20;52.60
9329;DHT22;4703;48.748;19.142;2022-08-19T13:25:03;34.00;51.90
9329;DHT22;4703;48.748;19.142;2022-08-19T13:27:32;34.00;51.60
9329;DHT22;4703;48.748;19.142;2022-08-19T13:30:00;34.00;54.30
9329;DHT22;4703;48.748;19.142;2022-08-19T13:32:45;33.90;53.60
9329;DHT22;4703;48.748;19.142;2022-08-19T13:35:31;34.00;54.20
9329;DHT22;4703;48.748;19.142;2022-08-19T13:37:58;34.00;54.70
9329;DHT22;4703;48.748;19.142;2022-08-19T13:40:25;34.00;54.20
9329;DHT22;4703;48.748;19.142;2022-08-19T13:42:54;34.00;53.10
9329;DHT22;4703;48.748;19.142;2022-08-19T13:45:24;34.00;53.80
9329;DHT22;4703;48.748;19.142;2022-08-19T13:47:54;34.00;54.50
9329;DHT22;4703;48.748;19.142;2022-08-19T13:50:30;34.10;54.30
9329;DHT22;4703;48.748;19.142;2022-08-19T13:53:00;34.20;53.50
9329;DHT22;4703;48.748;19.142;2022-08-19T13:55:29;34.30;53.60
9329;DHT22;4703;48.748;19.142;2022-08-19T13:57:59;34.40;50.70
9329;DHT22;4703;48.748;19.142;2022-08-19T14:00:35;34.50;52.20
9329;DHT22;4703;48.748;19.142;2022-08-19T14:03:04;34.60;52.60
9329;DHT22;4703;48.748;19.142;2022-08-19T14:05:35;34.70;50.20
9329;DHT22;4703;48.748;19.142;2022-08-19T14:08:02;34.60;50.90
9329;DHT22;4703;48.748;19.142;2022-08-19T14:10:30;34.50;50.80
9329;DHT22;4703;48.748;19.142;2022-08-19T14:13:00;34.40;51.80
9329;DHT22;4703;48.748;19.142;2022-08-19T14:15:29;34.30;52.60
9329;DHT22;4703;48.748;19.142;2022-08-19T14:17:57;34.30;50.80
9329;DHT22;4703;48.748;19.142;2022-08-19T14:20:24;34.30;50.60
9329;DHT22;4703;48.748;19.142;2022-08-19T14:22:53;34.30;50.50
9329;DHT22;4703;48.748;19.142;2022-08-19T14:25:24;34.30;54.10
9329;DHT22;4703;48.748;19.142;2022-08-19T14:27:53;34.30;52.00
9329;DHT22;4703;48.748;19.142;2022-08-19T14:30:27;34.30;52.70
9329;DHT22;4703;48.748;19.142;2022-08-19T14:32:58;34.40;53.50
9329;DHT22;4703;48.748;19.142;2022-08-19T14:35:27;34.40;49.90
9329;DHT22;4703;48.748;19.142;2022-08-19T14:37:55;34.40;52.30
9329;DHT22;4703;48.748;19.142;2022-08-19T14:40:26;34.50;50.40
9329;DHT22;4703;48.748;19.142;2022-08-19T14:43:01;34.50;49.50
9329;DHT22;4703;48.748;19.142;2022-08-19T14:45:38;34.50;50.50
9329;DHT22;4703;48.748;19.142;2022-08-19T14:48:08;34.60;51.40
9329;DHT22;4703;48.748;19.142;2022-08-19T14:50:44;34.60;51.80
9329;DHT22;4703;48.748;19.142;2022-08-19T14:53:11;34.60;50.60
9329;DHT22;4703;48.748;19.142;2022-08-19T14:55:43;34.70;50.50
9329;DHT22;4703;48.748;19.142;2022-08-19T14:58:12;34.70;49.20
9329;DHT22;4703;48.748;19.142;2022-08-19T15:00:57;34.80;49.60
9329;DHT22;4703;48.748;19.142;2022-08-19T15:03:25;35.00;49.60
9329;DHT22;4703;48.748;19.142;2022-08-19T15:05:52;35.30;50.10
9329;DHT22;4703;48.748;19.142;2022-08-19T15:08:19;35.60;51.70
9329;DHT22;4703;48.748;19.142;2022-08-19T15:10:47;35.90;52.70
9329;DHT22;4703;48.748;19.142;2022-08-19T15:13:15;36.20;47.90
9329;DHT22;4703;48.748;19.142;2022-08-19T15:15:42;36.40;47.30
9329;DHT22;4703;48.748;19.142;2022-08-19T15:18:09;36.60;47.20
9329;DHT22;4703;48.748;19.142;2022-08-19T15:20:38;36.70;46.50
9329;DHT22;4703;48.748;19.142;2022-08-19T15:23:07;36.80;46.20
9329;DHT22;4703;48.748;19.142;2022-08-19T15:25:35;37.00;45.90
9329;DHT22;4703;48.748;19.142;2022-08-19T15:28:03;37.00;46.50
9329;DHT22;4703;48.748;19.142;2022-08-19T15:30:30;36.90;49.00
9329;DHT22;4703;48.748;19.142;2022-08-19T15:32:57;36.90;46.80
9329;DHT22;4703;48.748;19.142;2022-08-19T15:35:25;36.80;48.50
9329;DHT22;4703;48.748;19.142;2022-08-19T15:37:53;36.70;47.30
9329;DHT22;4703;48.748;19.142;2022-08-19T15:40:22;36.60;45.30
9329;DHT22;4703;48.748;19.142;2022-08-19T15:42:50;36.50;47.60
9329;DHT22;4703;48.748;19.142;2022-08-19T15:45:20;36.30;48.10
9329;DHT22;4703;48.748;19.142;2022-08-19T15:47:48;36.20;47.50
9329;DHT22;4703;48.748;19.142;2022-08-19T15:50:18;36.20;48.30
9329;DHT22;4703;48.748;19.142;2022-08-19T15:52:49;36.30;46.90
9329;DHT22;4703;48.748;19.142;2022-08-19T15:55:20;36.40;47.30
9329;DHT22;4703;48.748;19.142;2022-08-19T15:58:04;36.60;46.50
9329;DHT22;4703;48.748;19.142;2022-08-19T16:00:57;36.60;46.20
9329;DHT22;4703;48.748;19.142;2022-08-19T16:03:47;36.50;47.00
9329;DHT22;4703;48.748;19.142;2022-08-19T16:06:43;36.40;49.00
9329;DHT22;4703;48.748;19.142;2022-08-19T16:09:19;36.00;49.10
9329;DHT22;4703;48.748;19.142;2022-08-19T16:11:56;35.60;49.40
9329;DHT22;4703;48.748;19.142;2022-08-19T16:14:29;35.30;51.60
9329;DHT22;4703;48.748;19.142;2022-08-19T16:17:00;34.90;51.40
9329;DHT22;4703;48.748;19.142;2022-08-19T16:19:28;34.70;50.90
9329;DHT22;4703;48.748;19.142;2022-08-19T16:21:58;34.30;51.50